Terminal Aerodrome Forecast
Issued by NWS

Home | Current Version | Previous Version | Text Only | Print | Product List | Glossary On
Versions: 1 2 3 4 5 6 7 8 9 10 11 12 13 14 15 16 17 18 19 20 21 22 23 24 25 26 27
000
FTUS42 KJAX 211614 AAC
TAFCRG
TAF AMD
KCRG 211614Z 2116/2212 VRB06KT P6SM SCT025 BKN035
      TEMPO 2116/2119 VRB10G20KT 2SM TSRA OVC025CB
     FM211900 10010KT P6SM BKN050 BKN250
     FM220200 12003KT P6SM SCT250=

USA.gov is the U.S. government's official web portal to all federal, state and local government web resources and services.